createdAt,value
2022-10-11T00:02:25.253Z,25.47
2022-10-11T00:04:53.858Z,25.40
2022-10-11T00:07:24.193Z,25.41
2022-10-11T00:09:52.107Z,25.42
2022-10-11T00:12:19.445Z,25.45
2022-10-11T00:14:47.081Z,25.46
2022-10-11T00:17:20.261Z,25.45
2022-10-11T00:19:52.415Z,25.41
2022-10-11T00:22:24.755Z,25.38
2022-10-11T00:24:55.105Z,25.40
2022-10-11T00:27:25.387Z,25.36
2022-10-11T00:29:55.588Z,25.39
2022-10-11T00:32:24.080Z,25.36
2022-10-11T00:34:51.411Z,25.34
2022-10-11T00:37:20.532Z,25.35
2022-10-11T00:39:54.520Z,25.35
2022-10-11T00:42:23.098Z,25.36
2022-10-11T00:44:51.363Z,25.34
2022-10-11T00:47:22.003Z,25.40
2022-10-11T00:50:04.083Z,25.38
2022-10-11T00:52:50.451Z,25.34
2022-10-11T00:55:26.936Z,25.26
2022-10-11T00:57:56.733Z,25.29
2022-10-11T01:00:30.478Z,25.34
2022-10-11T01:03:04.052Z,25.30
2022-10-11T01:05:31.990Z,25.31
2022-10-11T01:08:03.507Z,25.31
2022-10-11T01:10:33.524Z,25.41
2022-10-11T01:13:33.150Z,25.52
2022-10-11T01:16:16.116Z,25.52
2022-10-11T01:18:43.877Z,25.64
2022-10-11T01:21:17.585Z,25.60
2022-10-11T01:23:50.638Z,25.63
2022-10-11T01:26:41.414Z,25.75
2022-10-11T01:29:30.298Z,25.74
2022-10-11T01:32:16.477Z,25.73
2022-10-11T01:35:06.409Z,25.68
2022-10-11T01:37:41.325Z,25.69
2022-10-11T01:40:22.306Z,25.72
2022-10-11T01:42:57.486Z,25.74
2022-10-11T01:45:27.590Z,25.75
2022-10-11T01:48:11.478Z,25.73
2022-10-11T01:50:45.094Z,25.80
2022-10-11T01:53:40.216Z,25.77
2022-10-11T01:56:37.713Z,25.77
2022-10-11T01:59:08.337Z,25.79
2022-10-11T02:01:47.691Z,25.83
2022-10-11T02:04:33.002Z,25.80
2022-10-11T02:07:15.786Z,25.85
2022-10-11T02:09:52.882Z,25.85
2022-10-11T02:12:43.528Z,25.77
2022-10-11T02:15:19.844Z,25.82
2022-10-11T02:17:55.549Z,25.83
2022-10-11T02:20:29.361Z,25.83
2022-10-11T02:23:05.818Z,25.82
2022-10-11T02:25:36.522Z,25.76
2022-10-11T02:28:20.514Z,25.77
2022-10-11T02:30:54.592Z,25.75
2022-10-11T02:33:31.984Z,25.70
2022-10-11T02:36:08.522Z,25.63
2022-10-11T02:39:03.704Z,25.50
2022-10-11T02:41:40.384Z,25.54
2022-10-11T02:44:23.909Z,25.49
2022-10-11T02:46:54.786Z,25.47
2022-10-11T02:49:25.203Z,25.38
2022-10-11T02:51:58.673Z,25.36
2022-10-11T02:54:29.304Z,25.37
2022-10-11T02:56:59.944Z,25.30
2022-10-11T02:59:30.502Z,25.26
2022-10-11T03:02:03.987Z,25.29
2022-10-11T03:04:31.564Z,25.32
2022-10-11T03:07:02.015Z,25.32
2022-10-11T03:09:34.905Z,25.25
2022-10-11T03:12:04.955Z,25.23
2022-10-11T03:14:35.488Z,25.26
2022-10-11T03:17:30.938Z,25.23
2022-10-11T03:19:57.599Z,25.26
2022-10-11T03:22:28.360Z,25.19
2022-10-11T03:25:04.341Z,25.14
2022-10-11T03:27:33.492Z,25.19
2022-10-11T03:30:05.176Z,25.17
2022-10-11T03:32:41.454Z,25.19
2022-10-11T03:35:15.363Z,25.13
2022-10-11T03:37:48.564Z,25.14
2022-10-11T03:40:21.245Z,25.08
2022-10-11T03:42:51.752Z,25.06
2022-10-11T03:45:21.894Z,25.02
2022-10-11T03:47:50.377Z,25.06
2022-10-11T03:50:20.629Z,25.06
2022-10-11T03:52:53.449Z,25.04
2022-10-11T03:55:24.009Z,25.05
2022-10-11T03:57:53.963Z,25.04
2022-10-11T04:00:27.595Z,25.04
2022-10-11T04:03:03.701Z,25.02
2022-10-11T04:05:35.634Z,24.99
2022-10-11T04:08:09.836Z,25.01
2022-10-11T04:10:44.672Z,24.97
2022-10-11T04:13:16.372Z,25.00
2022-10-11T04:15:50.091Z,25.05
2022-10-11T04:18:23.545Z,25.05
2022-10-11T04:20:56.862Z,25.07
2022-10-11T04:23:27.431Z,25.05
2022-10-11T04:26:00.542Z,25.01
2022-10-11T04:28:33.992Z,25.01
2022-10-11T04:31:05.239Z,25.01
2022-10-11T04:33:33.255Z,25.01
2022-10-11T04:36:04.148Z,24.99
2022-10-11T04:38:35.240Z,25.01
2022-10-11T04:41:15.577Z,24.99
2022-10-11T04:43:43.252Z,24.96
2022-10-11T04:46:13.664Z,24.95
2022-10-11T04:48:44.337Z,24.95
2022-10-11T04:51:12.216Z,24.92
2022-10-11T04:53:43.077Z,24.92
2022-10-11T04:56:15.132Z,24.96
2022-10-11T04:58:42.948Z,24.96
2022-10-11T05:01:16.164Z,24.90
2022-10-11T05:03:46.393Z,24.90
2022-10-11T05:06:19.921Z,24.88
2022-10-11T05:08:50.421Z,24.89
2022-10-11T05:11:21.292Z,24.89
2022-10-11T05:13:51.955Z,24.91
2022-10-11T05:16:23.425Z,24.85
2022-10-11T05:18:57.135Z,24.87
2022-10-11T05:21:29.516Z,24.90
2022-10-11T05:24:02.865Z,24.92
2022-10-11T05:26:33.061Z,24.86
2022-10-11T05:29:02.855Z,24.84
2022-10-11T05:31:38.201Z,24.80
2022-10-11T05:34:06.093Z,24.81
2022-10-11T05:36:36.796Z,24.76
2022-10-11T05:39:10.639Z,24.85
2022-10-11T05:41:41.805Z,24.79
2022-10-11T05:44:12.419Z,24.82
2022-10-11T05:46:43.749Z,24.84
2022-10-11T05:49:14.492Z,24.87
2022-10-11T05:51:48.641Z,25.02
2022-10-11T05:54:19.274Z,25.18
2022-10-11T05:56:55.761Z,25.25
2022-10-11T05:59:26.601Z,25.54
2022-10-11T06:01:57.092Z,25.84
2022-10-11T06:04:28.270Z,25.97
2022-10-11T06:06:59.002Z,26.04
2022-10-11T06:09:34.893Z,25.96
2022-10-11T06:12:05.276Z,26.07
2022-10-11T06:14:52.606Z,26.24
2022-10-11T06:17:29.027Z,26.34
2022-10-11T06:19:59.410Z,26.57
2022-10-11T06:22:32.887Z,26.63
2022-10-11T06:25:03.120Z,26.57
2022-10-11T06:27:33.620Z,26.45
2022-10-11T06:30:04.900Z,26.42
2022-10-11T06:32:41.913Z,26.62
2022-10-11T06:35:12.197Z,26.70
2022-10-11T06:37:43.187Z,26.41
2022-10-11T06:40:17.767Z,26.36
2022-10-11T06:42:54.560Z,26.75
2022-10-11T06:45:28.811Z,27.25
2022-10-11T06:48:01.878Z,27.56
2022-10-11T06:50:57.927Z,27.38
2022-10-11T06:53:31.731Z,27.13
2022-10-11T06:56:13.099Z,27.37
2022-10-11T06:58:44.073Z,27.11
2022-10-11T07:01:26.677Z,27.15
2022-10-11T07:04:01.925Z,27.12
2022-10-11T07:06:31.781Z,27.12
2022-10-11T07:09:06.175Z,27.18
2022-10-11T07:11:34.799Z,27.08
2022-10-11T07:14:08.129Z,27.11
2022-10-11T07:16:38.892Z,27.57
2022-10-11T07:19:10.851Z,27.98
2022-10-11T07:21:41.484Z,27.58
2022-10-11T07:24:09.650Z,27.73
2022-10-11T07:26:43.653Z,27.56
2022-10-11T07:29:17.422Z,27.38
2022-10-11T07:31:48.187Z,27.36
2022-10-11T07:34:16.456Z,27.24
2022-10-11T07:36:52.829Z,27.18
2022-10-11T07:39:21.480Z,27.08
2022-10-11T07:41:52.571Z,27.29
2022-10-11T07:44:21.113Z,27.03
2022-10-11T07:46:52.503Z,26.79
2022-10-11T07:49:24.207Z,26.74
2022-10-11T07:51:59.086Z,26.76
2022-10-11T07:54:41.809Z,26.66
2022-10-11T07:57:15.801Z,27.06
2022-10-11T07:59:50.458Z,26.90
2022-10-11T08:02:24.659Z,26.86
2022-10-11T08:04:58.211Z,26.65
2022-10-11T08:07:31.843Z,26.76
2022-10-11T08:10:05.469Z,26.79
2022-10-11T08:12:36.084Z,26.80
2022-10-11T08:15:13.433Z,26.80
2022-10-11T08:17:49.999Z,26.98
2022-10-11T08:20:23.911Z,27.15
2022-10-11T08:22:51.735Z,27.19
2022-10-11T08:25:22.918Z,27.13
2022-10-11T08:27:51.567Z,27.27
2022-10-11T08:30:22.669Z,27.18
2022-10-11T08:32:53.476Z,27.37
2022-10-11T08:35:21.218Z,27.37
2022-10-11T08:37:49.132Z,27.02
2022-10-11T08:40:23.193Z,27.12
2022-10-11T08:43:04.781Z,27.02
2022-10-11T08:46:01.911Z,27.36
2022-10-11T08:48:37.278Z,27.00
2022-10-11T08:51:35.860Z,26.86
2022-10-11T08:54:21.300Z,27.08
2022-10-11T08:56:56.351Z,27.41
2022-10-11T08:59:45.943Z,27.36
2022-10-11T09:02:55.804Z,27.46
2022-10-11T09:05:28.307Z,27.64
2022-10-11T09:08:32.475Z,27.44
2022-10-11T09:11:03.477Z,27.58
2022-10-11T09:13:58.175Z,28.43
2022-10-11T09:16:48.718Z,29.02
2022-10-11T09:19:32.096Z,29.38
2022-10-11T09:22:32.275Z,29.14
2022-10-11T09:25:12.249Z,28.72
2022-10-11T09:28:13.315Z,28.96
2022-10-11T09:30:51.147Z,28.91
2022-10-11T09:33:42.790Z,28.23
2022-10-11T09:36:40.117Z,27.75
2022-10-11T09:39:30.873Z,27.90
2022-10-11T09:42:11.488Z,28.21
2022-10-11T09:44:50.413Z,28.26
2022-10-11T09:47:30.078Z,28.26
2022-10-11T09:50:06.613Z,28.10
2022-10-11T09:52:34.822Z,27.92
2022-10-11T09:55:29.328Z,27.76
2022-10-11T09:58:00.358Z,27.45
2022-10-11T10:00:33.725Z,27.43
2022-10-11T10:03:05.875Z,27.55
2022-10-11T10:05:37.563Z,27.89
2022-10-11T10:08:11.048Z,28.12
2022-10-11T10:11:04.652Z,28.24
2022-10-11T10:13:51.422Z,27.97
2022-10-11T10:16:22.375Z,28.08
2022-10-11T10:19:23.391Z,27.76
2022-10-11T10:21:58.353Z,27.82
2022-10-11T10:24:34.949Z,27.71
2022-10-11T10:27:14.922Z,27.54
2022-10-11T10:30:01.037Z,27.61
2022-10-11T10:32:55.826Z,27.48
2022-10-11T10:35:36.250Z,27.44
2022-10-11T10:38:16.902Z,27.24
2022-10-11T10:40:49.756Z,27.13
2022-10-11T10:43:27.029Z,27.34
2022-10-11T10:46:03.712Z,27.45
2022-10-11T10:49:34.824Z,27.58
2022-10-11T10:52:10.637Z,27.61
2022-10-11T10:55:00.409Z,27.25
2022-10-11T10:57:46.975Z,27.11
2022-10-11T11:00:22.154Z,26.91
2022-10-11T11:03:18.356Z,27.07
2022-10-11T11:06:05.251Z,26.89
2022-10-11T11:08:55.035Z,26.68
2022-10-11T11:11:54.312Z,26.70
2022-10-11T11:14:44.157Z,26.61
2022-10-11T11:17:30.885Z,26.54
2022-10-11T11:20:06.249Z,26.48
2022-10-11T11:22:49.409Z,26.18
2022-10-11T11:25:27.554Z,26.11
2022-10-11T11:28:16.458Z,26.17
2022-10-11T11:31:11.617Z,26.10
2022-10-11T11:33:48.910Z,25.97
2022-10-11T11:36:27.744Z,25.86
2022-10-11T11:39:05.907Z,25.87
2022-10-11T11:41:41.366Z,25.92
2022-10-11T11:44:31.213Z,25.91
2022-10-11T11:47:11.915Z,25.87
2022-10-11T11:49:48.774Z,25.89
2022-10-11T11:52:31.476Z,25.85
2022-10-11T11:55:08.107Z,26.13
2022-10-11T11:57:49.883Z,26.37
2022-10-11T12:00:27.633Z,26.36
2022-10-11T12:03:21.795Z,26.36
2022-10-11T12:06:08.309Z,26.32
2022-10-11T12:08:42.063Z,26.32
2022-10-11T12:11:26.284Z,26.05
2022-10-11T12:13:59.466Z,25.93
2022-10-11T12:16:34.816Z,26.06
2022-10-11T12:19:09.538Z,26.04
2022-10-11T12:21:44.501Z,26.12
2022-10-11T12:24:24.539Z,26.07
2022-10-11T12:27:18.478Z,26.07
2022-10-11T12:29:52.944Z,26.00
2022-10-11T12:32:35.879Z,25.99
2022-10-11T12:35:38.500Z,25.97
2022-10-11T12:38:21.681Z,26.21
2022-10-11T12:41:00.721Z,26.61
2022-10-11T12:43:36.349Z,26.66
2022-10-11T12:46:31.186Z,26.70
2022-10-11T12:49:09.604Z,26.85
2022-10-11T12:51:54.016Z,26.95
2022-10-11T12:54:46.337Z,27.41
2022-10-11T12:57:23.837Z,27.59
2022-10-11T12:59:54.983Z,27.73
2022-10-11T13:02:44.937Z,27.90
2022-10-11T13:05:31.453Z,28.19
2022-10-11T13:08:12.648Z,28.07
2022-10-11T13:10:46.369Z,28.08
2022-10-11T13:13:40.243Z,27.80
2022-10-11T13:16:20.737Z,27.79
2022-10-11T13:19:02.867Z,27.51
2022-10-11T13:21:38.807Z,27.35
2022-10-11T13:24:18.823Z,27.72
2022-10-11T13:26:52.192Z,28.11
2022-10-11T13:29:29.757Z,28.17
2022-10-11T13:32:04.504Z,27.49
2022-10-11T13:34:39.429Z,27.82
2022-10-11T13:37:13.314Z,27.89
2022-10-11T13:39:45.493Z,27.88
2022-10-11T13:42:19.311Z,27.89
2022-10-11T13:44:47.872Z,27.83
2022-10-11T13:47:27.989Z,27.77
2022-10-11T13:50:17.264Z,27.69
2022-10-11T13:53:01.201Z,27.64
2022-10-11T13:56:00.053Z,27.41
2022-10-11T13:58:46.274Z,27.53
2022-10-11T14:01:22.594Z,27.62
2022-10-11T14:04:04.096Z,27.71
2022-10-11T14:06:39.908Z,27.82
2022-10-11T14:09:17.704Z,27.51
2022-10-11T14:11:52.035Z,27.61
2022-10-11T14:14:33.912Z,27.30
2022-10-11T14:17:16.999Z,27.49
2022-10-11T14:19:47.328Z,27.46
2022-10-11T14:22:18.023Z,27.49
2022-10-11T14:24:49.062Z,27.64
2022-10-11T14:27:23.356Z,27.83
2022-10-11T14:30:20.319Z,28.03
2022-10-11T14:32:58.282Z,28.08
2022-10-11T14:35:34.365Z,28.22
2022-10-11T14:38:07.139Z,28.28
2022-10-11T14:40:37.474Z,28.11
2022-10-11T14:43:11.556Z,28.44
2022-10-11T14:45:47.877Z,28.53
2022-10-11T14:48:43.057Z,28.61
2022-10-11T14:51:13.427Z,28.30
2022-10-11T14:53:46.455Z,28.56
2022-10-11T14:56:21.136Z,28.86
2022-10-11T14:58:52.544Z,28.60
2022-10-11T15:01:26.348Z,28.51
2022-10-11T15:03:58.373Z,28.45
2022-10-11T15:06:33.017Z,28.29
2022-10-11T15:09:04.791Z,28.23
2022-10-11T15:11:36.860Z,28.19
2022-10-11T15:14:07.514Z,28.33
2022-10-11T15:16:36.593Z,28.39
2022-10-11T15:19:05.740Z,28.31
2022-10-11T15:21:36.998Z,28.02
2022-10-11T15:24:05.908Z,28.24
2022-10-11T15:26:38.266Z,28.30
2022-10-11T15:29:09.966Z,28.55
2022-10-11T15:31:39.119Z,29.22
2022-10-11T15:34:07.545Z,28.90
2022-10-11T15:36:38.544Z,28.75
2022-10-11T15:39:28.765Z,28.60
2022-10-11T15:42:04.939Z,28.48
2022-10-11T15:44:38.275Z,28.30
2022-10-11T15:47:06.100Z,28.07
2022-10-11T15:49:36.356Z,28.08
2022-10-11T15:52:04.396Z,27.72
2022-10-11T15:54:34.989Z,27.67
2022-10-11T15:57:09.181Z,27.70
2022-10-11T15:59:40.070Z,27.58
2022-10-11T16:02:17.265Z,27.79
2022-10-11T16:04:48.081Z,27.60
2022-10-11T16:07:22.441Z,27.44
2022-10-11T16:09:54.610Z,27.47
2022-10-11T16:12:25.058Z,27.49
2022-10-11T16:14:56.409Z,27.32
2022-10-11T16:17:24.731Z,27.23
2022-10-11T16:19:52.871Z,27.22
2022-10-11T16:22:26.918Z,27.37
2022-10-11T16:24:57.684Z,27.06
2022-10-11T16:27:26.782Z,26.84
2022-10-11T16:29:57.432Z,26.82
2022-10-11T16:32:28.534Z,26.80
2022-10-11T16:34:59.845Z,26.75
2022-10-11T16:37:31.610Z,26.63
2022-10-11T16:39:59.668Z,26.55
2022-10-11T16:42:30.704Z,26.52
2022-10-11T16:45:04.043Z,26.61
2022-10-11T16:47:34.888Z,26.44
2022-10-11T16:50:09.386Z,26.30
2022-10-11T16:52:40.234Z,26.33
2022-10-11T16:55:08.811Z,26.24
2022-10-11T16:57:42.723Z,26.27
2022-10-11T17:00:17.160Z,26.20
2022-10-11T17:02:45.252Z,26.03
2022-10-11T17:05:16.157Z,25.97
2022-10-11T17:07:46.967Z,26.01
2022-10-11T17:10:17.231Z,25.95
2022-10-11T17:12:49.899Z,25.94
2022-10-11T17:15:18.271Z,25.80
2022-10-11T17:17:46.169Z,25.82
2022-10-11T17:20:16.532Z,25.80
2022-10-11T17:22:44.502Z,25.92
2022-10-11T17:25:12.550Z,25.93
2022-10-11T17:27:40.791Z,25.72
2022-10-11T17:30:09.878Z,25.51
2022-10-11T17:32:40.682Z,25.46
2022-10-11T17:35:19.631Z,25.50
2022-10-11T17:37:50.792Z,25.58
2022-10-11T17:40:22.587Z,25.60
2022-10-11T17:42:50.444Z,25.75
2022-10-11T17:45:24.585Z,25.77
2022-10-11T17:48:00.631Z,25.74
2022-10-11T17:50:34.291Z,25.78
2022-10-11T17:53:04.500Z,25.79
2022-10-11T17:55:35.143Z,25.85
2022-10-11T17:58:11.184Z,25.87
2022-10-11T18:00:43.975Z,25.94
2022-10-11T18:03:14.317Z,25.87
2022-10-11T18:05:45.014Z,25.91
2022-10-11T18:08:18.842Z,25.90
2022-10-11T18:10:51.827Z,25.89
2022-10-11T18:13:24.835Z,25.94
2022-10-11T18:15:55.270Z,25.96
2022-10-11T18:18:23.693Z,25.97
2022-10-11T18:20:51.784Z,25.99
2022-10-11T18:23:25.505Z,25.93
2022-10-11T18:25:58.687Z,25.95
2022-10-11T18:28:32.203Z,25.97
2022-10-11T18:31:00.723Z,25.93
2022-10-11T18:33:35.437Z,25.95
2022-10-11T18:36:07.425Z,25.91
2022-10-11T18:38:46.180Z,25.92
2022-10-11T18:41:20.673Z,25.91
2022-10-11T18:43:57.863Z,25.85
2022-10-11T18:46:31.170Z,25.85
2022-10-11T18:49:01.330Z,25.90
2022-10-11T18:51:36.899Z,25.91
2022-10-11T18:54:09.447Z,25.88
2022-10-11T18:56:40.022Z,25.95
2022-10-11T18:59:15.679Z,25.93
2022-10-11T19:01:46.620Z,25.96
2022-10-11T19:04:16.857Z,25.92
2022-10-11T19:06:50.433Z,25.93
2022-10-11T19:09:23.738Z,25.94
2022-10-11T19:11:54.760Z,25.92
2022-10-11T19:14:28.640Z,25.92
2022-10-11T19:16:57.064Z,25.90
2022-10-11T19:19:28.931Z,25.88
2022-10-11T19:21:58.849Z,25.89
2022-10-11T19:24:28.509Z,25.93
2022-10-11T19:27:02.703Z,25.92
2022-10-11T19:29:34.387Z,25.91
2022-10-11T19:32:07.082Z,25.87
2022-10-11T19:34:35.848Z,25.86
2022-10-11T19:37:06.022Z,25.91
2022-10-11T19:39:39.223Z,25.88
2022-10-11T19:42:09.753Z,25.87
2022-10-11T19:44:39.865Z,25.89
2022-10-11T19:47:10.841Z,25.84
2022-10-11T19:49:40.978Z,25.87
2022-10-11T19:52:13.342Z,25.81
2022-10-11T19:54:44.205Z,25.84
2022-10-11T19:57:16.876Z,25.86
2022-10-11T19:59:47.646Z,25.86
2022-10-11T20:02:24.629Z,25.82
2022-10-11T20:05:00.568Z,25.80
2022-10-11T20:07:30.669Z,25.82
2022-10-11T20:10:03.476Z,25.85
2022-10-11T20:12:33.828Z,25.82
2022-10-11T20:15:06.955Z,25.84
2022-10-11T20:17:50.077Z,25.79
2022-10-11T20:20:23.356Z,25.82
2022-10-11T20:22:53.996Z,25.79
2022-10-11T20:25:26.653Z,25.82
2022-10-11T20:27:57.111Z,25.81
2022-10-11T20:30:30.129Z,25.79
2022-10-11T20:33:05.552Z,25.79
2022-10-11T20:35:38.347Z,25.81
2022-10-11T20:38:05.774Z,25.83
2022-10-11T20:40:33.161Z,25.81
2022-10-11T20:43:05.860Z,25.79
2022-10-11T20:45:36.195Z,25.82
2022-10-11T20:48:03.952Z,25.82
2022-10-11T20:50:31.891Z,25.78
2022-10-11T20:53:05.281Z,25.78
2022-10-11T20:55:37.291Z,25.79
2022-10-11T20:58:12.420Z,25.78
2022-10-11T21:00:40.634Z,25.78
2022-10-11T21:03:09.538Z,25.77
2022-10-11T21:05:39.913Z,25.65
2022-10-11T21:08:15.101Z,25.73
2022-10-11T21:10:53.291Z,25.68
2022-10-11T21:13:22.014Z,25.69
2022-10-11T21:15:55.247Z,25.67
2022-10-11T21:18:24.862Z,25.68
2022-10-11T21:20:57.795Z,25.79
2022-10-11T21:23:25.387Z,25.80
2022-10-11T21:26:00.870Z,25.79
2022-10-11T21:28:39.335Z,25.80
2022-10-11T21:31:15.711Z,25.79
2022-10-11T21:33:47.190Z,25.73
2022-10-11T21:36:21.070Z,25.77
2022-10-11T21:38:51.736Z,25.65
2022-10-11T21:41:21.907Z,25.68
2022-10-11T21:43:52.895Z,25.71
2022-10-11T21:46:53.974Z,25.66
2022-10-11T21:49:20.826Z,25.69
2022-10-11T21:51:50.930Z,25.61
2022-10-11T21:54:20.997Z,25.66
2022-10-11T21:56:48.699Z,25.67
2022-10-11T21:59:24.210Z,25.65
2022-10-11T22:02:01.678Z,25.68
2022-10-11T22:04:35.151Z,25.64
2022-10-11T22:07:04.948Z,25.64
2022-10-11T22:09:40.131Z,25.59
2022-10-11T22:12:12.674Z,25.58
2022-10-11T22:14:48.379Z,25.65
2022-10-11T22:17:21.563Z,25.65
2022-10-11T22:19:50.023Z,25.63
2022-10-11T22:22:20.419Z,25.64
2022-10-11T22:24:53.303Z,25.60
2022-10-11T22:27:26.978Z,25.64
2022-10-11T22:30:00.944Z,25.66
2022-10-11T22:32:29.824Z,25.65
2022-10-11T22:34:59.860Z,25.62
2022-10-11T22:37:33.532Z,25.59
2022-10-11T22:40:10.065Z,25.65
2022-10-11T22:42:43.036Z,25.63
2022-10-11T22:45:18.721Z,25.58
2022-10-11T22:47:54.593Z,25.66
2022-10-11T22:50:28.017Z,25.58
2022-10-11T22:52:57.914Z,25.55
2022-10-11T22:55:28.471Z,25.55
2022-10-11T22:58:02.045Z,25.54
2022-10-11T23:00:29.670Z,25.49
2022-10-11T23:03:01.731Z,25.55
2022-10-11T23:05:29.385Z,25.48
2022-10-11T23:08:02.265Z,25.56
2022-10-11T23:10:43.849Z,25.57
2022-10-11T23:13:15.285Z,25.55
2022-10-11T23:15:50.904Z,25.52
2022-10-11T23:18:23.273Z,25.57
2022-10-11T23:20:55.452Z,25.54
2022-10-11T23:23:25.819Z,25.51
2022-10-11T23:26:14.089Z,25.50
2022-10-11T23:28:43.015Z,25.46
2022-10-11T23:31:18.746Z,25.47
2022-10-11T23:33:51.142Z,25.45
2022-10-11T23:36:26.015Z,25.49
2022-10-11T23:38:55.863Z,25.47
2022-10-11T23:41:28.953Z,25.42
2022-10-11T23:43:57.147Z,25.44
2022-10-11T23:46:33.085Z,25.45
2022-10-11T23:49:11.126Z,25.50
2022-10-11T23:51:43.479Z,25.53
2022-10-11T23:54:16.389Z,25.46
2022-10-11T23:56:50.031Z,25.46
2022-10-11T23:59:25.165Z,25.46
